PWSweather.com
Personal Weather Stations
Station Observations
MAKAWAOWX1
Up Country Maui, Makawao, HI 96768

Up Country MauiMakawao, HI 96768

Lat: 20.856944, Lon: -156.3149667

Elevation: 1500

Station Type: Davis Vantage Pro

Latest ConditionsUpdated 9:50:03 AM HST Sunday, Nov 19, 2017
Currently Today's Max Today's Min Today's Average
Temperature 67.4°F19.7°C 67.5°F19.7°C 60.4°F15.8°C 62.6°F17.0°C
Dew Point 63.4°F17.4°C 64.2°F17.9°C 58.7°F14.8°C 60.6°F15.9°C
Winds 4.6 mph NW7.4 kmh NW 4.6 mph NW7.4 kmh NW - 0.1 mph 0.2 kmh
Wind Gusts 9.2 mph14.8 kmh 9.2 mph14.8 kmh - -
Humidity 87% 96% 87% 93%
Pressure 29.85 in1010.8 mb 29.85 in1010.8 mb 29.79 in1008.8 mb -
Precipitation - 0.01 in0.3 mm - -
Hour Temp Dew Point Humidity Winds Wind Gusts Pressure Precip Precip Rate Daily Precip Total
09:50 AM 67.4°F19.7°C 63.4°F17.4°C 87% 4.6 mph NW7.4 kmh NW 9.2 mph14.8 kmh 29.85 in1010.8 mb - 0.00 in0.0 mm 0.01 in0.3 mm
09:40 AM 67.5°F19.7°C 64.2°F17.9°C 89% Calm Calm -- 29.85 in1010.8 mb - 0.00 in0.0 mm 0.01 in0.3 mm
09:30 AM 67.1°F19.5°C 63.4°F17.4°C 88% Calm Calm -- 29.85 in1010.8 mb - 0.00 in0.0 mm 0.01 in0.3 mm
09:20 AM 66.5°F19.2°C 63.5°F17.5°C 90% Calm Calm 8.1 mph13.0 kmh 29.85 in1010.8 mb - 0.00 in0.0 mm 0.01 in0.3 mm
09:10 AM 65.3°F18.5°C 62.9°F17.2°C 92% Calm Calm -- 29.85 in1010.8 mb - 0.00 in0.0 mm 0.01 in0.3 mm
09:00 AM 64.9°F18.3°C 63.1°F17.3°C 94% Calm Calm -- 29.85 in1010.8 mb - 0.00 in0.0 mm 0.01 in0.3 mm
08:50 AM 64.9°F18.3°C 63.1°F17.3°C 94% Calm Calm -- 29.84 in1010.5 mb - 0.00 in0.0 mm 0.01 in0.3 mm
08:40 AM 64.7°F18.2°C 63.0°F17.2°C 94% Calm Calm -- 29.84 in1010.5 mb - 0.00 in0.0 mm 0.01 in0.3 mm
08:30 AM 64.5°F18.1°C 62.7°F17.1°C 94% Calm Calm -- 29.84 in1010.5 mb - 0.00 in0.0 mm 0.01 in0.3 mm
08:20 AM 63.8°F17.7°C 62.1°F16.7°C 94% Calm Calm -- 29.84 in1010.5 mb - 0.00 in0.0 mm 0.01 in0.3 mm
08:10 AM 63.4°F17.4°C 61.6°F16.4°C 94% Calm Calm -- 29.83 in1010.2 mb - 0.00 in0.0 mm 0.01 in0.3 mm
08:00 AM 63.0°F17.2°C 61.8°F16.6°C 96% Calm Calm -- 29.83 in1010.2 mb - 0.00 in0.0 mm 0.01 in0.3 mm
07:50 AM 62.1°F16.7°C 61.0°F16.1°C 96% Calm Calm -- 29.83 in1010.2 mb - 0.00 in0.0 mm 0.01 in0.3 mm
07:40 AM 61.1°F16.2°C 59.7°F15.4°C 95% Calm Calm -- 29.83 in1010.2 mb - 0.00 in0.0 mm 0.01 in0.3 mm
07:30 AM 60.8°F16.0°C 59.3°F15.2°C 95% Calm Calm -- 29.83 in1010.2 mb - 0.00 in0.0 mm 0.01 in0.3 mm
07:20 AM 60.4°F15.8°C 58.7°F14.8°C 94% Calm Calm -- 29.82 in1009.8 mb - 0.00 in0.0 mm 0.01 in0.3 mm
07:10 AM 60.4°F15.8°C 58.7°F14.8°C 94% Calm Calm -- 29.82 in1009.8 mb - 0.00 in0.0 mm 0.01 in0.3 mm
07:00 AM 60.5°F15.8°C 58.8°F14.9°C 94% Calm Calm -- 29.82 in1009.8 mb - 0.00 in0.0 mm 0.01 in0.3 mm
06:50 AM 60.6°F15.9°C 58.9°F14.9°C 94% Calm Calm -- 29.82 in1009.8 mb - 0.00 in0.0 mm 0.01 in0.3 mm
06:40 AM 60.7°F15.9°C 59.0°F15.0°C 94% Calm Calm -- 29.82 in1009.8 mb - 0.00 in0.0 mm 0.01 in0.3 mm
06:30 AM 60.8°F16.0°C 59.1°F15.1°C 94% Calm Calm -- 29.81 in1009.5 mb - 0.00 in0.0 mm 0.01 in0.3 mm
06:20 AM 60.8°F16.0°C 59.1°F15.1°C 94% Calm Calm -- 29.81 in1009.5 mb - 0.00 in0.0 mm 0.01 in0.3 mm
06:10 AM 60.9°F16.1°C 58.9°F14.9°C 93% Calm Calm -- 29.81 in1009.5 mb - 0.00 in0.0 mm 0.01 in0.3 mm
06:00 AM 61.2°F16.2°C 59.2°F15.1°C 93% Calm Calm -- 29.81 in1009.5 mb - 0.00 in0.0 mm 0.01 in0.3 mm
05:50 AM 61.8°F16.6°C 59.8°F15.4°C 93% Calm Calm -- 29.81 in1009.5 mb - 0.00 in0.0 mm 0.01 in0.3 mm
05:40 AM 62.3°F16.8°C 60.5°F15.8°C 94% Calm Calm -- 29.80 in1009.1 mb - 0.00 in0.0 mm 0.01 in0.3 mm
05:30 AM 62.6°F17.0°C 60.8°F16.0°C 94% Calm Calm -- 29.80 in1009.1 mb - 0.00 in0.0 mm 0.01 in0.3 mm
05:20 AM 62.7°F17.1°C 60.9°F16.1°C 94% Calm Calm -- 29.80 in1009.1 mb - 0.00 in0.0 mm 0.01 in0.3 mm
05:10 AM 62.7°F17.1°C 60.9°F16.1°C 94% Calm Calm -- 29.81 in1009.5 mb - 0.00 in0.0 mm 0.01 in0.3 mm
05:00 AM 62.7°F17.1°C 61.2°F16.2°C 95% Calm Calm -- 29.80 in1009.1 mb - 0.00 in0.0 mm 0.01 in0.3 mm
04:50 AM 62.5°F16.9°C 61.0°F16.1°C 95% Calm Calm -- 29.80 in1009.1 mb - 0.00 in0.0 mm 0.01 in0.3 mm
04:40 AM 62.0°F16.7°C 60.6°F15.9°C 95% Calm Calm -- 29.80 in1009.1 mb - 0.01 in0.3 mm 0.01 in0.3 mm
04:30 AM 61.2°F16.2°C 59.7°F15.4°C 95% Calm Calm -- 29.80 in1009.1 mb - 0.00 in0.0 mm 0.00 in0.0 mm
04:20 AM 60.6°F15.9°C 58.9°F14.9°C 94% Calm Calm -- 29.80 in1009.1 mb - 0.00 in0.0 mm 0.00 in0.0 mm
04:10 AM 60.6°F15.9°C 58.9°F14.9°C 94% Calm Calm -- 29.80 in1009.1 mb - 0.00 in0.0 mm 0.00 in0.0 mm
04:00 AM 60.7°F15.9°C 58.7°F14.8°C 93% Calm Calm -- 29.80 in1009.1 mb - 0.00 in0.0 mm 0.00 in0.0 mm
03:50 AM 61.0°F16.1°C 58.9°F14.9°C 93% Calm Calm -- 29.80 in1009.1 mb - 0.00 in0.0 mm 0.00 in0.0 mm
03:40 AM 61.2°F16.2°C 59.2°F15.1°C 93% Calm Calm -- 29.80 in1009.1 mb - 0.00 in0.0 mm 0.00 in0.0 mm
03:30 AM 61.4°F16.3°C 59.7°F15.4°C 94% Calm Calm -- 29.80 in1009.1 mb - 0.00 in0.0 mm 0.00 in0.0 mm
03:20 AM 61.4°F16.3°C 59.7°F15.4°C 94% Calm Calm -- 29.80 in1009.1 mb - 0.00 in0.0 mm 0.00 in0.0 mm
03:10 AM 61.4°F16.3°C 59.4°F15.2°C 93% Calm Calm -- 29.79 in1008.8 mb - 0.00 in0.0 mm 0.00 in0.0 mm
03:00 AM 61.4°F16.3°C 59.4°F15.2°C 93% Calm Calm -- 29.79 in1008.8 mb - 0.00 in0.0 mm 0.00 in0.0 mm
02:50 AM 61.6°F16.4°C 59.6°F15.3°C 93% Calm Calm -- 29.79 in1008.8 mb - 0.00 in0.0 mm 0.00 in0.0 mm
02:40 AM 61.9°F16.6°C 59.9°F15.5°C 93% Calm Calm -- 29.79 in1008.8 mb - 0.00 in0.0 mm 0.00 in0.0 mm
02:30 AM 62.2°F16.8°C 60.2°F15.7°C 93% Calm Calm -- 29.80 in1009.1 mb - 0.00 in0.0 mm 0.00 in0.0 mm
02:20 AM 62.6°F17.0°C 60.5°F15.8°C 93% Calm Calm -- 29.79 in1008.8 mb - 0.00 in0.0 mm 0.00 in0.0 mm
02:10 AM 62.9°F17.2°C 60.8°F16.0°C 93% Calm Calm -- 29.80 in1009.1 mb - 0.00 in0.0 mm 0.00 in0.0 mm
02:00 AM 63.1°F17.3°C 61.0°F16.1°C 93% Calm Calm -- 29.80 in1009.1 mb - 0.00 in0.0 mm 0.00 in0.0 mm
01:50 AM 63.2°F17.3°C 61.1°F16.2°C 93% Calm Calm -- 29.81 in1009.5 mb - 0.00 in0.0 mm 0.00 in0.0 mm
01:40 AM 63.3°F17.4°C 61.5°F16.4°C 94% Calm Calm -- 29.81 in1009.5 mb - 0.00 in0.0 mm 0.00 in0.0 mm
01:30 AM 63.3°F17.4°C 61.5°F16.4°C 94% Calm Calm -- 29.81 in1009.5 mb - 0.00 in0.0 mm 0.00 in0.0 mm
01:20 AM 63.0°F17.2°C 61.3°F16.3°C 94% Calm Calm -- 29.81 in1009.5 mb - 0.00 in0.0 mm 0.00 in0.0 mm
01:10 AM 62.9°F17.2°C 60.8°F16.0°C 93% Calm Calm -- 29.82 in1009.8 mb - 0.00 in0.0 mm 0.00 in0.0 mm
01:00 AM 63.0°F17.2°C 60.9°F16.1°C 93% Calm Calm -- 29.81 in1009.5 mb - 0.00 in0.0 mm 0.00 in0.0 mm
12:50 AM 63.0°F17.2°C 61.2°F16.2°C 94% Calm Calm -- 29.82 in1009.8 mb - 0.00 in0.0 mm 0.00 in0.0 mm
12:40 AM 62.9°F17.2°C 61.1°F16.2°C 94% Calm Calm -- 29.82 in1009.8 mb - 0.00 in0.0 mm 0.00 in0.0 mm
12:30 AM 62.7°F17.1°C 60.6°F15.9°C 93% Calm Calm -- 29.82 in1009.8 mb - 0.00 in0.0 mm 0.00 in0.0 mm
12:20 AM 62.8°F17.1°C 60.7°F15.9°C 93% Calm Calm -- 29.82 in1009.8 mb - 0.00 in0.0 mm 0.00 in0.0 mm
12:10 AM 63.0°F17.2°C 61.0°F16.1°C 93% Calm Calm -- 29.82 in1009.8 mb - 0.00 in0.0 mm 0.00 in0.0 mm
12:00 AM 63.4°F17.4°C 61.3°F16.3°C 93% Calm Calm -- 29.83 in1010.2 mb - 0.00 in0.0 mm 0.00 in0.0 mm